createdAt,value
2018-11-06T00:00:06.246Z,150.70
2018-11-06T00:02:34.722Z,123.93
2018-11-06T00:05:08.562Z,152.53
2018-11-06T00:07:37.078Z,150.63
2018-11-06T00:10:05.655Z,146.87
2018-11-06T00:12:34.165Z,173.80
2018-11-06T00:15:02.702Z,148.87
2018-11-06T00:17:31.234Z,154.53
2018-11-06T00:19:59.733Z,154.63
2018-11-06T00:22:28.240Z,150.83
2018-11-06T00:24:56.726Z,168.70
2018-11-06T00:27:25.218Z,134.60
2018-11-06T00:29:53.714Z,137.87
2018-11-06T00:32:22.238Z,140.77
2018-11-06T00:34:50.742Z,162.90
2018-11-06T00:37:19.238Z,140.77
2018-11-06T00:39:47.726Z,148.83
2018-11-06T00:42:16.202Z,151.70
2018-11-06T00:44:44.721Z,139.90
2018-11-06T00:47:13.222Z,145.37
2018-11-06T00:49:41.705Z,150.83
2018-11-06T00:52:10.210Z,146.67
2018-11-06T00:54:38.713Z,137.53
2018-11-06T00:57:07.213Z,126.30
2018-11-06T00:59:35.709Z,131.40
2018-11-06T01:02:04.217Z,117.43
2018-11-06T01:04:32.721Z,127.83
2018-11-06T01:07:01.225Z,111.97
2018-11-06T01:09:30.018Z,110.30
2018-11-06T01:11:58.537Z,124.97
2018-11-06T01:14:27.054Z,110.07
2018-11-06T01:16:55.640Z,106.87
2018-11-06T01:19:24.160Z,106.60
2018-11-06T01:21:52.664Z,105.87
2018-11-06T01:24:21.150Z,125.70
2018-11-06T01:26:49.624Z,121.43
2018-11-06T01:29:18.112Z,124.23
2018-11-06T01:31:46.613Z,121.23
2018-11-06T01:34:15.564Z,111.17
2018-11-06T01:36:44.057Z,139.80
2018-11-06T01:39:12.573Z,168.10
2018-11-06T01:41:41.088Z,145.37
2018-11-06T01:44:09.713Z,135.07
2018-11-06T01:46:38.204Z,133.93
2018-11-06T01:49:06.733Z,139.87
2018-11-06T01:51:35.228Z,151.87
2018-11-06T01:54:03.728Z,151.07
2018-11-06T01:56:32.256Z,166.13
2018-11-06T01:59:00.748Z,160.57
2018-11-06T02:01:29.444Z,160.67
2018-11-06T02:03:58.008Z,163.73
2018-11-06T02:06:26.509Z,141.10
2018-11-06T02:08:55.013Z,136.17
2018-11-06T02:11:23.507Z,134.73
2018-11-06T02:13:52.137Z,133.97
2018-11-06T02:16:20.624Z,136.43
2018-11-06T02:18:49.940Z,145.47
2018-11-06T02:21:18.443Z,140.43
2018-11-06T02:23:46.972Z,158.27
2018-11-06T02:26:15.492Z,140.87
2018-11-06T02:28:44.004Z,140.00
2018-11-06T02:31:12.488Z,144.77
2018-11-06T02:33:41.468Z,128.53
2018-11-06T02:36:10.048Z,143.13
2018-11-06T02:38:38.620Z,130.37
2018-11-06T02:41:07.131Z,120.17
2018-11-06T02:43:35.640Z,139.83
2018-11-06T02:46:04.168Z,153.80
2018-11-06T02:48:32.695Z,117.73
2018-11-06T02:51:01.191Z,118.17
2018-11-06T02:53:29.700Z,107.87
2018-11-06T02:55:58.264Z,119.40
2018-11-06T02:58:26.687Z,110.70
2018-11-06T03:00:55.256Z,114.50
2018-11-06T03:03:23.759Z,111.57
2018-11-06T03:05:52.257Z,115.00
2018-11-06T03:08:20.759Z,109.80
2018-11-06T03:10:49.255Z,109.50
2018-11-06T03:13:17.751Z,120.93
2018-11-06T03:15:46.331Z,118.67
2018-11-06T03:18:14.843Z,122.03
2018-11-06T03:20:43.367Z,107.47
2018-11-06T03:23:11.857Z,102.17
2018-11-06T03:25:40.351Z,106.50
2018-11-06T03:28:08.834Z,117.10
2018-11-06T03:30:37.323Z,126.93
2018-11-06T03:33:05.795Z,85.37
2018-11-06T03:35:34.307Z,92.50
2018-11-06T03:38:02.783Z,103.63
2018-11-06T03:40:31.278Z,111.07
2018-11-06T03:42:59.802Z,116.13
2018-11-06T03:45:28.312Z,94.57
2018-11-06T03:47:56.798Z,106.27
2018-11-06T03:50:25.274Z,132.27
2018-11-06T03:52:53.831Z,110.53
2018-11-06T03:55:22.314Z,141.87
2018-11-06T03:57:50.822Z,183.23
2018-11-06T04:00:19.330Z,191.23
2018-11-06T04:02:47.840Z,131.97
2018-11-06T04:05:16.330Z,140.77
2018-11-06T04:07:44.822Z,142.13
2018-11-06T04:10:13.673Z,138.73
2018-11-06T04:12:42.681Z,134.70
2018-11-06T04:15:12.491Z,136.20
2018-11-06T04:17:41.518Z,127.57
2018-11-06T04:20:10.591Z,117.87
2018-11-06T04:22:39.462Z,96.27
2018-11-06T04:25:08.466Z,87.27
2018-11-06T04:27:37.014Z,92.03
2018-11-06T04:30:07.706Z,95.40
2018-11-06T04:32:36.226Z,97.77
2018-11-06T04:35:05.030Z,87.10
2018-11-06T04:37:33.634Z,84.10
2018-11-06T04:40:02.143Z,102.20
2018-11-06T04:42:30.642Z,102.37
2018-11-06T04:44:59.146Z,99.83
2018-11-06T04:47:27.685Z,99.03
2018-11-06T04:49:56.170Z,84.67
2018-11-06T04:52:24.642Z,94.57
2018-11-06T04:54:53.137Z,87.47
2018-11-06T04:57:21.633Z,90.57
2018-11-06T04:59:50.107Z,84.53
2018-11-06T05:02:18.595Z,79.23
2018-11-06T05:04:47.234Z,85.90
2018-11-06T05:07:15.728Z,73.37
2018-11-06T05:09:44.205Z,73.67
2018-11-06T05:12:12.702Z,77.63
2018-11-06T05:14:41.197Z,80.90
2018-11-06T05:17:09.694Z,76.47
2018-11-06T05:19:38.218Z,76.67
2018-11-06T05:22:07.129Z,75.23
2018-11-06T05:24:35.653Z,65.73
2018-11-06T05:27:04.834Z,64.67
2018-11-06T05:29:33.425Z,65.00
2018-11-06T05:32:01.993Z,88.30
2018-11-06T05:34:30.466Z,82.50
2018-11-06T05:36:58.961Z,74.23
2018-11-06T05:39:27.480Z,74.17
2018-11-06T05:41:55.985Z,77.13
2018-11-06T05:44:24.466Z,73.17
2018-11-06T05:46:52.941Z,82.10
2018-11-06T05:49:21.453Z,73.53
2018-11-06T05:51:49.925Z,79.97
2018-11-06T05:54:18.413Z,73.17
2018-11-06T05:56:46.916Z,78.13
2018-11-06T05:59:15.431Z,72.53
2018-11-06T06:01:43.952Z,79.40
2018-11-06T06:04:12.418Z,67.37
2018-11-06T06:06:40.928Z,67.37
2018-11-06T06:09:09.444Z,77.33
2018-11-06T06:11:37.927Z,67.00
2018-11-06T06:14:06.435Z,72.17
2018-11-06T06:16:34.942Z,78.97
2018-11-06T06:19:03.455Z,68.13
2018-11-06T06:21:32.048Z,62.87
2018-11-06T06:24:00.537Z,65.10
2018-11-06T06:26:29.061Z,71.33
2018-11-06T06:28:57.549Z,75.17
2018-11-06T06:31:26.036Z,69.47
2018-11-06T06:33:54.652Z,90.60
2018-11-06T06:36:23.112Z,82.40
2018-11-06T06:38:51.659Z,78.90
2018-11-06T06:41:20.141Z,72.70
2018-11-06T06:43:48.628Z,58.43
2018-11-06T06:46:17.202Z,63.27
2018-11-06T06:48:45.659Z,60.37
2018-11-06T06:51:14.175Z,62.97
2018-11-06T06:53:42.751Z,62.23
2018-11-06T06:56:11.295Z,66.87
2018-11-06T06:58:39.791Z,65.33
2018-11-06T07:01:08.531Z,68.97
2018-11-06T07:03:37.023Z,68.17
2018-11-06T07:06:05.575Z,64.77
2018-11-06T07:08:34.083Z,71.10
2018-11-06T07:11:02.594Z,74.23
2018-11-06T07:13:31.891Z,71.50
2018-11-06T07:16:00.374Z,80.23
2018-11-06T07:18:28.862Z,81.93
2018-11-06T07:20:57.363Z,71.77
2018-11-06T07:23:25.854Z,63.33
2018-11-06T07:25:54.331Z,60.37
2018-11-06T07:28:22.822Z,60.47
2018-11-06T07:30:51.307Z,54.97
2018-11-06T07:33:19.826Z,62.60
2018-11-06T07:35:48.502Z,56.77
2018-11-06T07:38:16.839Z,56.40
2018-11-06T07:40:45.378Z,62.90
2018-11-06T07:43:13.911Z,53.67
2018-11-06T07:45:42.426Z,46.90
2018-11-06T07:48:10.923Z,51.03
2018-11-06T07:50:39.630Z,51.60
2018-11-06T07:53:08.114Z,54.67
2018-11-06T07:55:36.660Z,52.77
2018-11-06T07:58:05.218Z,47.57
2018-11-06T08:00:33.722Z,51.97
2018-11-06T08:03:02.242Z,47.57
2018-11-06T08:08:29.726Z,44.87
2018-11-06T08:10:58.193Z,54.17
2018-11-06T08:13:26.798Z,53.40
2018-11-06T08:15:55.278Z,48.90
2018-11-06T08:18:23.753Z,48.60
2018-11-06T08:20:52.250Z,45.73
2018-11-06T08:23:20.849Z,47.80
2018-11-06T08:25:49.377Z,46.57
2018-11-06T08:28:17.858Z,49.30
2018-11-06T08:30:46.563Z,51.60
2018-11-06T08:33:14.886Z,45.90
2018-11-06T08:35:43.410Z,49.67
2018-11-06T08:38:11.920Z,44.50
2018-11-06T08:40:40.425Z,48.33
2018-11-06T08:43:08.905Z,40.50
2018-11-06T08:45:37.405Z,45.03
2018-11-06T08:48:06.221Z,46.03
2018-11-06T08:50:34.673Z,42.57
2018-11-06T08:53:03.164Z,37.93
2018-11-06T08:55:31.645Z,145.10
2018-11-06T08:58:00.169Z,60.60
2018-11-06T09:00:28.696Z,46.27
2018-11-06T09:02:57.188Z,47.17
2018-11-06T09:05:25.701Z,42.97
2018-11-06T09:07:54.317Z,37.00
2018-11-06T09:10:22.809Z,40.13
2018-11-06T09:12:51.324Z,42.63
2018-11-06T09:15:19.823Z,37.27
2018-11-06T09:17:48.353Z,37.30
2018-11-06T09:20:17.416Z,33.63
2018-11-06T09:22:45.923Z,36.10
2018-11-06T09:25:15.837Z,33.57
2018-11-06T09:27:44.626Z,36.30
2018-11-06T09:30:14.624Z,32.47
2018-11-06T09:32:43.112Z,31.17
2018-11-06T09:35:12.411Z,32.23
2018-11-06T09:37:41.516Z,31.43
2018-11-06T09:40:12.288Z,35.70
2018-11-06T09:42:40.805Z,45.00
2018-11-06T09:45:10.055Z,36.23
2018-11-06T09:47:38.544Z,31.67
2018-11-06T09:50:09.268Z,46.37
2018-11-06T09:52:37.780Z,34.13
2018-11-06T09:55:06.312Z,37.53
2018-11-06T09:57:34.860Z,33.33
2018-11-06T10:00:03.390Z,26.50
2018-11-06T10:02:31.913Z,32.90
2018-11-06T10:05:00.399Z,33.73
2018-11-06T10:07:29.125Z,33.97
2018-11-06T10:09:57.515Z,30.07
2018-11-06T10:12:26.022Z,32.87
2018-11-06T10:14:54.507Z,30.27
2018-11-06T10:17:23.008Z,33.57
2018-11-06T10:19:51.499Z,29.17
2018-11-06T10:22:20.012Z,25.90
2018-11-06T10:24:48.506Z,38.23
2018-11-06T10:27:17.023Z,26.83
2018-11-06T10:29:45.523Z,27.57
2018-11-06T10:32:14.040Z,30.40
2018-11-06T10:34:42.636Z,29.43
2018-11-06T10:37:11.159Z,32.87
2018-11-06T10:39:39.639Z,26.47
2018-11-06T10:42:08.159Z,27.77
2018-11-06T10:44:36.660Z,35.83
2018-11-06T10:47:05.315Z,30.03
2018-11-06T10:49:33.807Z,27.27
2018-11-06T10:52:02.308Z,28.27
2018-11-06T10:54:30.879Z,25.23
2018-11-06T10:56:59.387Z,26.27
2018-11-06T10:59:27.871Z,30.43
2018-11-06T11:02:01.740Z,25.63
2018-11-06T11:04:30.827Z,36.07
2018-11-06T11:06:59.319Z,36.73
2018-11-06T11:09:27.807Z,25.37
2018-11-06T11:11:56.363Z,30.10
2018-11-06T11:14:24.883Z,32.63
2018-11-06T11:16:53.390Z,28.43
2018-11-06T11:19:21.905Z,23.60
2018-11-06T11:21:50.394Z,28.77
2018-11-06T11:24:18.890Z,24.77
2018-11-06T11:26:47.375Z,22.60
2018-11-06T11:29:15.874Z,26.73
2018-11-06T11:31:44.370Z,29.63
2018-11-06T11:34:12.890Z,29.23
2018-11-06T11:36:41.390Z,25.90
2018-11-06T11:39:10.246Z,23.07
2018-11-06T11:41:38.918Z,23.23
2018-11-06T11:44:07.411Z,23.27
2018-11-06T11:46:36.014Z,31.57
2018-11-06T11:49:04.570Z,28.87
2018-11-06T11:51:33.078Z,26.93
2018-11-06T11:54:01.615Z,34.87
2018-11-06T11:56:30.102Z,32.30
2018-11-06T11:58:58.594Z,23.10
2018-11-06T12:01:27.103Z,27.53
2018-11-06T12:03:55.589Z,27.93
2018-11-06T12:06:24.066Z,21.37
2018-11-06T12:08:52.622Z,28.03
2018-11-06T12:11:21.145Z,25.97
2018-11-06T12:13:49.673Z,26.90
2018-11-06T12:16:18.193Z,21.40
2018-11-06T12:18:46.677Z,28.63
2018-11-06T12:21:15.210Z,26.43
2018-11-06T12:23:43.745Z,26.10
2018-11-06T12:26:12.254Z,24.87
2018-11-06T12:28:40.749Z,26.10
2018-11-06T12:31:09.261Z,23.73
2018-11-06T12:33:37.766Z,31.50
2018-11-06T12:36:06.289Z,28.20
2018-11-06T12:38:34.805Z,73.53
2018-11-06T12:41:03.315Z,19.77
2018-11-06T12:43:31.853Z,22.60
2018-11-06T12:46:00.393Z,23.70
2018-11-06T12:48:28.925Z,25.47
2018-11-06T12:50:57.441Z,26.73
2018-11-06T12:53:25.948Z,22.70
2018-11-06T12:55:54.525Z,18.07
2018-11-06T12:58:23.032Z,21.10
2018-11-06T13:00:51.544Z,20.60
2018-11-06T13:03:20.057Z,20.33
2018-11-06T13:05:48.580Z,23.13
2018-11-06T13:08:17.045Z,22.03
2018-11-06T13:10:45.565Z,24.13
2018-11-06T13:13:14.049Z,23.00
2018-11-06T13:15:42.673Z,20.57
2018-11-06T13:18:11.229Z,17.83
2018-11-06T13:20:39.760Z,129.57
2018-11-06T13:23:08.264Z,26.23
2018-11-06T13:25:36.764Z,26.43
2018-11-06T13:28:05.415Z,19.57
2018-11-06T13:30:33.964Z,31.50
2018-11-06T13:33:02.473Z,20.93
2018-11-06T13:35:30.956Z,30.87
2018-11-06T13:37:59.456Z,19.37
2018-11-06T13:40:27.972Z,41.50
2018-11-06T13:42:56.705Z,20.60
2018-11-06T13:45:25.912Z,18.93
2018-11-06T13:47:54.304Z,18.23
2018-11-06T13:50:22.807Z,23.20
2018-11-06T13:52:51.308Z,20.07
2018-11-06T13:55:19.844Z,22.40
2018-11-06T13:57:48.328Z,19.57
2018-11-06T14:00:18.242Z,25.50
2018-11-06T14:02:46.776Z,22.63
2018-11-06T14:05:15.507Z,21.30
2018-11-06T14:07:44.052Z,23.20
2018-11-06T14:10:12.552Z,19.17
2018-11-06T14:12:42.007Z,30.07
2018-11-06T14:15:10.536Z,53.23
2018-11-06T14:17:39.381Z,24.10
2018-11-06T14:20:09.704Z,25.13
2018-11-06T14:22:38.263Z,29.57
2018-11-06T14:25:07.337Z,19.27
2018-11-06T14:27:35.886Z,26.97
2018-11-06T14:30:05.017Z,23.80
2018-11-06T14:32:33.511Z,26.60
2018-11-06T14:35:02.008Z,22.67
2018-11-06T14:37:30.496Z,17.93
2018-11-06T14:39:59.003Z,20.13
2018-11-06T14:42:27.624Z,21.53
2018-11-06T14:44:56.056Z,23.43
2018-11-06T14:47:24.591Z,25.87
2018-11-06T14:49:53.127Z,21.67
2018-11-06T14:52:21.615Z,21.80
2018-11-06T14:54:50.100Z,20.40
2018-11-06T14:57:18.639Z,23.23
2018-11-06T14:59:47.147Z,22.70
2018-11-06T15:02:15.639Z,23.23
2018-11-06T15:04:44.139Z,24.27
2018-11-06T15:07:12.686Z,24.33
2018-11-06T15:09:41.190Z,24.77
2018-11-06T15:12:09.699Z,20.87
2018-11-06T15:14:38.319Z,52.20
2018-11-06T15:17:06.854Z,43.80
2018-11-06T15:19:35.426Z,160.97
2018-11-06T15:22:04.322Z,183.77
2018-11-06T15:24:32.830Z,84.73
2018-11-06T15:27:01.358Z,77.57
2018-11-06T15:29:29.882Z,60.10
2018-11-06T15:31:58.390Z,58.70
2018-11-06T15:34:26.915Z,58.17
2018-11-06T15:36:55.462Z,177.03
2018-11-06T15:39:24.026Z,156.03
2018-11-06T15:41:52.790Z,69.97
2018-11-06T15:44:21.625Z,44.55
2018-11-06T15:46:50.305Z,38.27
2018-11-06T15:49:18.842Z,29.13
2018-11-06T15:51:47.333Z,57.80
2018-11-06T15:54:15.870Z,107.43
2018-11-06T15:56:44.377Z,230.33
2018-11-06T15:59:12.934Z,152.07
2018-11-06T16:01:41.458Z,84.10
2018-11-06T16:04:10.018Z,82.87
2018-11-06T16:06:38.518Z,111.33
2018-11-06T16:09:07.486Z,70.80
2018-11-06T16:11:35.989Z,61.07
2018-11-06T16:14:04.590Z,51.90
2018-11-06T16:16:33.101Z,43.30
2018-11-06T16:19:01.610Z,32.23
2018-11-06T16:21:30.132Z,27.33
2018-11-06T16:23:58.667Z,31.67
2018-11-06T16:26:27.169Z,28.83
2018-11-06T16:28:55.669Z,31.37
2018-11-06T16:31:24.181Z,25.13
2018-11-06T16:33:52.761Z,27.17
2018-11-06T16:36:21.271Z,42.50
2018-11-06T16:38:49.872Z,46.73
2018-11-06T16:41:18.424Z,43.40
2018-11-06T16:43:46.961Z,32.23
2018-11-06T16:46:15.497Z,27.93
2018-11-06T16:48:44.028Z,29.90
2018-11-06T16:51:12.565Z,29.70
2018-11-06T16:53:41.093Z,48.53
2018-11-06T16:56:09.603Z,31.93
2018-11-06T16:58:38.113Z,28.30
2018-11-06T17:01:06.819Z,26.30
2018-11-06T17:03:35.253Z,30.67
2018-11-06T17:06:03.809Z,30.57
2018-11-06T17:08:32.876Z,29.13
2018-11-06T17:11:01.393Z,31.00
2018-11-06T17:13:29.889Z,28.47
2018-11-06T17:15:58.408Z,34.23
2018-11-06T17:18:26.932Z,30.67
2018-11-06T17:20:55.424Z,29.80
2018-11-06T17:23:23.909Z,27.10
2018-11-06T17:25:52.434Z,32.03
2018-11-06T17:28:20.935Z,26.80
2018-11-06T17:30:49.502Z,35.70
2018-11-06T17:33:18.032Z,32.60
2018-11-06T17:35:46.552Z,29.83
2018-11-06T17:38:15.061Z,30.93
2018-11-06T17:40:43.576Z,24.57
2018-11-06T17:43:12.118Z,31.57
2018-11-06T17:45:40.631Z,35.03
2018-11-06T17:48:09.164Z,39.73
2018-11-06T17:50:37.684Z,29.50
2018-11-06T17:53:06.200Z,39.37
2018-11-06T17:55:34.729Z,29.30
2018-11-06T17:58:03.260Z,62.47
2018-11-06T18:00:31.787Z,31.97
2018-11-06T18:03:00.271Z,30.40
2018-11-06T18:05:28.756Z,35.57
2018-11-06T18:07:57.284Z,31.50
2018-11-06T18:10:25.846Z,28.87
2018-11-06T18:12:54.367Z,31.03
2018-11-06T18:15:22.931Z,32.07
2018-11-06T18:17:51.633Z,30.83
2018-11-06T18:20:19.991Z,24.33
2018-11-06T18:22:48.492Z,26.40
2018-11-06T18:25:17.059Z,25.00
2018-11-06T18:27:45.564Z,28.33
2018-11-06T18:30:15.912Z,27.73
2018-11-06T18:32:44.435Z,28.67
2018-11-06T18:35:13.925Z,35.87
2018-11-06T18:37:42.502Z,31.80
2018-11-06T18:40:13.795Z,41.50
2018-11-06T18:42:42.971Z,35.40
2018-11-06T18:45:11.555Z,35.93
2018-11-06T18:47:40.164Z,44.17
2018-11-06T18:50:10.452Z,38.63
2018-11-06T18:52:39.027Z,39.03
2018-11-06T18:55:07.835Z,36.70
2018-11-06T18:57:36.630Z,37.27
2018-11-06T19:00:06.524Z,35.30
2018-11-06T19:02:35.038Z,37.03
2018-11-06T19:05:03.553Z,36.63
2018-11-06T19:07:32.170Z,33.53
2018-11-06T19:10:00.663Z,36.60
2018-11-06T19:12:29.427Z,36.47
2018-11-06T19:14:57.930Z,38.00
2018-11-06T19:17:26.423Z,36.00
2018-11-06T19:19:55.060Z,39.30
2018-11-06T19:22:23.750Z,36.10
2018-11-06T19:24:52.283Z,30.47
2018-11-06T19:27:20.769Z,40.80
2018-11-06T19:29:49.253Z,31.50
2018-11-06T19:32:17.734Z,36.10
2018-11-06T19:34:46.258Z,33.20
2018-11-06T19:37:14.766Z,36.53
2018-11-06T19:39:43.282Z,30.83
2018-11-06T19:42:11.804Z,33.70
2018-11-06T19:44:40.330Z,33.73
2018-11-06T19:47:09.048Z,54.27
2018-11-06T19:49:37.636Z,26.40
2018-11-06T19:52:06.182Z,33.20
2018-11-06T19:54:34.709Z,31.80
2018-11-06T19:57:03.214Z,27.90
2018-11-06T19:59:31.888Z,45.47
2018-11-06T20:02:00.444Z,33.23
2018-11-06T20:04:28.969Z,33.27
2018-11-06T20:06:57.467Z,41.27
2018-11-06T20:09:25.994Z,31.30
2018-11-06T20:12:57.459Z,30.43
2018-11-06T20:15:25.939Z,27.37
2018-11-06T20:17:54.502Z,30.73
2018-11-06T20:20:24.360Z,27.60
2018-11-06T20:22:52.960Z,31.30
2018-11-06T20:25:21.489Z,42.60
2018-11-06T20:27:49.984Z,30.10
2018-11-06T20:30:19.731Z,30.30
2018-11-06T20:32:48.227Z,35.87
2018-11-06T20:35:16.976Z,30.67
2018-11-06T20:37:45.548Z,34.03
2018-11-06T20:40:16.092Z,37.83
2018-11-06T20:42:45.249Z,40.83
2018-11-06T20:45:14.884Z,34.83
2018-11-06T20:47:43.758Z,36.13
2018-11-06T20:50:14.669Z,35.03
2018-11-06T20:52:43.558Z,35.10
2018-11-06T20:55:13.109Z,36.00
2018-11-06T20:57:41.745Z,36.23
2018-11-06T21:00:17.641Z,40.00
2018-11-06T21:02:46.368Z,45.03
2018-11-06T21:05:15.493Z,39.43
2018-11-06T21:07:44.473Z,38.57
2018-11-06T21:10:13.304Z,42.40
2018-11-06T21:12:41.788Z,39.20
2018-11-06T21:15:10.985Z,44.57
2018-11-06T21:17:39.581Z,43.77
2018-11-06T21:20:09.193Z,41.17
2018-11-06T21:22:37.740Z,37.90
2018-11-06T21:25:07.078Z,38.33
2018-11-06T21:27:35.560Z,39.47
2018-11-06T21:30:04.458Z,34.87
2018-11-06T21:32:32.955Z,34.63
2018-11-06T21:35:01.428Z,36.47
2018-11-06T21:37:29.912Z,36.83
2018-11-06T21:39:58.392Z,35.63
2018-11-06T21:42:27.040Z,36.07
2018-11-06T21:44:55.548Z,33.80
2018-11-06T21:47:24.039Z,35.50
2018-11-06T21:49:52.524Z,37.07
2018-11-06T21:52:21.046Z,34.73
2018-11-06T21:54:49.614Z,38.83
2018-11-06T21:57:18.080Z,36.57
2018-11-06T21:59:46.584Z,38.27
2018-11-06T22:02:15.100Z,34.70
2018-11-06T22:04:43.595Z,41.93
2018-11-06T22:07:12.103Z,34.87
2018-11-06T22:09:40.619Z,45.37
2018-11-06T22:12:09.225Z,44.47
2018-11-06T22:14:37.701Z,47.10
2018-11-06T22:17:06.251Z,48.60
2018-11-06T22:19:34.738Z,53.40
2018-11-06T22:22:03.283Z,52.03
2018-11-06T22:24:31.743Z,49.93
2018-11-06T22:27:00.250Z,50.83
2018-11-06T22:29:28.747Z,49.10
2018-11-06T22:31:57.396Z,50.10
2018-11-06T22:34:25.852Z,42.33
2018-11-06T22:36:54.411Z,45.23
2018-11-06T22:39:22.891Z,48.17
2018-11-06T22:41:51.374Z,49.30
2018-11-06T22:44:19.899Z,51.00
2018-11-06T22:46:48.419Z,41.93
2018-11-06T22:49:16.911Z,39.83
2018-11-06T22:51:45.416Z,43.63
2018-11-06T22:54:13.950Z,43.37
2018-11-06T22:56:42.444Z,40.53
2018-11-06T22:59:10.938Z,39.90
2018-11-06T23:01:39.508Z,41.40
2018-11-06T23:04:08.015Z,45.43
2018-11-06T23:06:36.505Z,44.47
2018-11-06T23:09:08.027Z,43.77
2018-11-06T23:11:36.714Z,43.97
2018-11-06T23:14:05.334Z,42.63
2018-11-06T23:16:33.862Z,43.37
2018-11-06T23:19:02.410Z,47.20
2018-11-06T23:21:30.910Z,46.23
2018-11-06T23:23:59.430Z,39.97
2018-11-06T23:26:27.986Z,42.77
2018-11-06T23:28:56.685Z,48.77
2018-11-06T23:31:25.249Z,47.30
2018-11-06T23:33:53.699Z,43.70
2018-11-06T23:36:22.271Z,48.63
2018-11-06T23:38:50.774Z,41.63
2018-11-06T23:41:19.305Z,46.47
2018-11-06T23:43:47.893Z,41.73
2018-11-06T23:46:16.426Z,51.20
2018-11-06T23:48:44.962Z,44.47
2018-11-06T23:51:13.445Z,45.20
2018-11-06T23:53:41.957Z,45.07
2018-11-06T23:56:10.456Z,45.20
2018-11-06T23:58:38.952Z,48.93
